createdAt,value
2022-07-27T00:01:54.679Z,100.00
2022-07-27T00:04:22.487Z,100.00
2022-07-27T00:06:50.461Z,100.00
2022-07-27T00:09:19.691Z,100.00
2022-07-27T00:11:47.347Z,100.00
2022-07-27T00:14:15.222Z,100.00
2022-07-27T00:16:42.720Z,100.00
2022-07-27T00:19:10.316Z,100.00
2022-07-27T00:21:44.403Z,100.00
2022-07-27T00:24:12.704Z,100.00
2022-07-27T00:26:40.252Z,100.00
2022-07-27T00:29:07.385Z,100.00
2022-07-27T00:31:34.632Z,100.00
2022-07-27T00:34:02.091Z,100.00
2022-07-27T00:36:29.375Z,100.00
2022-07-27T00:38:56.849Z,100.00
2022-07-27T00:41:24.256Z,100.00
2022-07-27T00:43:59.382Z,100.00
2022-07-27T00:46:28.729Z,100.00
2022-07-27T00:48:56.072Z,100.00
2022-07-27T00:51:23.674Z,100.00
2022-07-27T00:53:52.590Z,100.00
2022-07-27T00:56:20.132Z,100.00
2022-07-27T00:58:51.651Z,100.00
2022-07-27T01:01:19.494Z,100.00
2022-07-27T01:03:47.995Z,100.00
2022-07-27T01:06:15.772Z,100.00
2022-07-27T01:08:43.460Z,100.00
2022-07-27T01:11:11.353Z,100.00
2022-07-27T01:13:38.984Z,100.00
2022-07-27T01:16:07.309Z,100.00
2022-07-27T01:18:39.161Z,100.00
2022-07-27T01:21:09.146Z,100.00
2022-07-27T01:23:36.749Z,100.00
2022-07-27T01:26:05.767Z,100.00
2022-07-27T01:28:33.040Z,100.00
2022-07-27T01:31:00.848Z,100.00
2022-07-27T01:33:28.391Z,100.00
2022-07-27T01:35:57.445Z,100.00
2022-07-27T01:38:25.043Z,100.00
2022-07-27T01:40:53.120Z,100.00
2022-07-27T01:43:21.317Z,100.00
2022-07-27T01:45:49.125Z,100.00
2022-07-27T01:48:16.230Z,100.00
2022-07-27T01:50:47.668Z,100.00
2022-07-27T01:53:15.640Z,100.00
2022-07-27T01:55:43.007Z,100.00
2022-07-27T01:58:10.363Z,100.00
2022-07-27T02:00:38.318Z,100.00
2022-07-27T02:03:07.330Z,100.00
2022-07-27T02:05:35.128Z,100.00
2022-07-27T02:08:03.978Z,100.00
2022-07-27T02:10:31.749Z,100.00
2022-07-27T02:12:58.970Z,100.00
2022-07-27T02:15:27.885Z,100.00
2022-07-27T02:18:33.317Z,100.00
2022-07-27T02:20:56.824Z,100.00
2022-07-27T02:23:24.110Z,100.00
2022-07-27T02:25:51.480Z,100.00
2022-07-27T02:28:18.773Z,100.00
2022-07-27T02:30:46.218Z,100.00
2022-07-27T02:33:13.659Z,100.00
2022-07-27T02:35:41.116Z,100.00
2022-07-27T02:38:08.269Z,100.00
2022-07-27T02:40:35.470Z,100.00
2022-07-27T02:43:02.970Z,100.00
2022-07-27T02:45:30.204Z,100.00
2022-07-27T02:47:57.511Z,100.00
2022-07-27T02:50:24.994Z,100.00
2022-07-27T02:52:52.158Z,100.00
2022-07-27T02:55:19.408Z,100.00
2022-07-27T02:57:47.031Z,100.00
2022-07-27T03:00:16.100Z,100.00
2022-07-27T03:02:43.384Z,100.00
2022-07-27T03:05:11.578Z,100.00
2022-07-27T03:07:38.962Z,100.00
2022-07-27T03:10:07.023Z,100.00
2022-07-27T03:12:34.491Z,100.00
2022-07-27T03:15:01.665Z,100.00
2022-07-27T03:17:29.051Z,100.00
2022-07-27T03:19:56.339Z,100.00
2022-07-27T03:22:23.544Z,100.00
2022-07-27T03:24:50.821Z,100.00
2022-07-27T03:27:18.220Z,100.00
2022-07-27T03:29:45.965Z,100.00
2022-07-27T03:32:13.138Z,100.00
2022-07-27T03:34:40.651Z,100.00
2022-07-27T03:37:07.952Z,100.00
2022-07-27T03:39:35.140Z,100.00
2022-07-27T03:42:02.612Z,100.00
2022-07-27T03:44:30.113Z,100.00
2022-07-27T03:46:57.322Z,100.00
2022-07-27T03:49:24.902Z,100.00
2022-07-27T03:51:52.054Z,100.00
2022-07-27T03:54:19.243Z,100.00
2022-07-27T03:56:46.668Z,100.00
2022-07-27T03:59:14.845Z,100.00
2022-07-27T04:01:42.428Z,100.00
2022-07-27T04:04:10.054Z,100.00
2022-07-27T04:06:37.249Z,100.00
2022-07-27T04:09:11.924Z,100.00
2022-07-27T04:11:43.419Z,100.00
2022-07-27T04:14:12.660Z,100.00
2022-07-27T04:16:40.522Z,100.00
2022-07-27T04:19:08.545Z,100.00
2022-07-27T04:21:36.030Z,100.00
2022-07-27T04:24:03.221Z,100.00
2022-07-27T04:26:30.824Z,100.00
2022-07-27T04:28:58.126Z,100.00
2022-07-27T04:31:25.399Z,100.00
2022-07-27T04:33:52.909Z,100.00
2022-07-27T04:36:19.981Z,100.00
2022-07-27T04:38:47.332Z,100.00
2022-07-27T04:41:14.774Z,100.00
2022-07-27T04:43:42.090Z,100.00
2022-07-27T04:46:14.706Z,100.00
2022-07-27T04:48:49.231Z,100.00
2022-07-27T04:51:17.957Z,100.00
2022-07-27T04:53:52.420Z,100.00
2022-07-27T04:56:24.873Z,100.00
2022-07-27T04:58:52.232Z,100.00
2022-07-27T05:01:19.556Z,100.00
2022-07-27T05:03:46.911Z,100.00
2022-07-27T05:06:14.350Z,100.00
2022-07-27T05:08:41.554Z,100.00
2022-07-27T05:11:08.742Z,100.00
2022-07-27T05:13:40.431Z,100.00
2022-07-27T05:16:09.450Z,100.00
2022-07-27T05:18:38.190Z,100.00
2022-07-27T05:21:06.564Z,100.00
2022-07-27T05:23:34.790Z,100.00
2022-07-27T05:26:02.312Z,100.00
2022-07-27T05:28:29.794Z,100.00
2022-07-27T05:30:56.950Z,100.00
2022-07-27T05:33:24.133Z,100.00
2022-07-27T05:35:51.601Z,97.94
2022-07-27T05:38:18.863Z,96.21
2022-07-27T05:40:46.531Z,90.36
2022-07-27T05:43:14.171Z,90.79
2022-07-27T05:45:41.412Z,92.18
2022-07-27T05:48:08.679Z,88.24
2022-07-27T05:50:37.050Z,87.91
2022-07-27T05:53:04.435Z,89.79
2022-07-27T05:55:31.474Z,85.82
2022-07-27T05:57:59.040Z,84.85
2022-07-27T06:00:26.288Z,82.62
2022-07-27T06:02:54.658Z,79.69
2022-07-27T06:05:22.093Z,76.64
2022-07-27T06:08:09.408Z,77.75
2022-07-27T06:10:38.187Z,77.28
2022-07-27T06:13:06.849Z,77.73
2022-07-27T06:15:34.639Z,75.47
2022-07-27T06:18:03.939Z,76.47
2022-07-27T06:20:31.794Z,71.09
2022-07-27T06:23:00.564Z,72.63
2022-07-27T06:25:34.159Z,71.29
2022-07-27T06:28:04.810Z,69.36
2022-07-27T06:30:33.448Z,69.63
2022-07-27T06:33:04.355Z,69.18
2022-07-27T06:35:32.636Z,67.98
2022-07-27T06:38:01.241Z,66.02
2022-07-27T06:40:30.093Z,65.13
2022-07-27T06:42:58.660Z,64.70
2022-07-27T06:45:27.550Z,66.03
2022-07-27T06:47:55.436Z,68.82
2022-07-27T06:50:24.269Z,65.17
2022-07-27T06:52:52.315Z,66.05
2022-07-27T06:55:19.921Z,65.48
2022-07-27T06:57:47.723Z,64.05
2022-07-27T07:00:16.230Z,57.99
2022-07-27T07:03:05.900Z,60.58
2022-07-27T07:05:40.547Z,62.53
2022-07-27T07:08:12.197Z,64.40
2022-07-27T07:10:40.588Z,61.94
2022-07-27T07:13:08.963Z,60.84
2022-07-27T07:15:37.913Z,57.75
2022-07-27T07:18:06.680Z,60.37
2022-07-27T07:20:35.109Z,59.95
2022-07-27T07:23:02.862Z,59.31
2022-07-27T07:25:30.448Z,55.29
2022-07-27T07:27:57.933Z,56.13
2022-07-27T07:30:26.186Z,60.16
2022-07-27T07:32:54.091Z,57.88
2022-07-27T07:35:21.557Z,57.44
2022-07-27T07:37:50.188Z,55.20
2022-07-27T07:43:07.324Z,59.20
2022-07-27T07:45:38.151Z,58.28
2022-07-27T07:48:17.244Z,56.85
2022-07-27T07:50:44.679Z,60.56
2022-07-27T07:53:15.178Z,58.78
2022-07-27T07:55:42.892Z,61.47
2022-07-27T07:58:10.724Z,57.81
2022-07-27T08:00:38.451Z,54.95
2022-07-27T08:03:06.421Z,56.87
2022-07-27T08:05:34.031Z,58.56
2022-07-27T08:08:01.572Z,59.32
2022-07-27T08:10:29.274Z,56.82
2022-07-27T08:12:57.280Z,57.96
2022-07-27T08:15:34.596Z,56.23
2022-07-27T08:18:05.549Z,60.46
2022-07-27T08:20:33.408Z,63.46
2022-07-27T08:23:01.060Z,60.19
2022-07-27T08:25:29.491Z,56.20
2022-07-27T08:27:57.122Z,59.45
2022-07-27T08:30:24.839Z,62.06
2022-07-27T08:32:55.228Z,58.55
2022-07-27T08:35:23.504Z,55.55
2022-07-27T08:37:52.520Z,59.52
2022-07-27T08:40:39.805Z,56.75
2022-07-27T08:43:09.188Z,58.99
2022-07-27T08:45:37.857Z,56.72
2022-07-27T08:48:05.960Z,56.89
2022-07-27T08:50:35.703Z,58.43
2022-07-27T08:53:06.574Z,60.24
2022-07-27T08:55:38.665Z,57.47
2022-07-27T08:58:08.365Z,61.51
2022-07-27T09:00:39.450Z,59.22
2022-07-27T09:03:07.063Z,58.32
2022-07-27T09:05:41.661Z,58.96
2022-07-27T09:08:15.454Z,60.05
2022-07-27T09:10:43.470Z,57.39
2022-07-27T09:13:30.347Z,58.55
2022-07-27T09:18:48.971Z,62.49
2022-07-27T09:21:22.315Z,61.51
2022-07-27T09:24:36.571Z,60.36
2022-07-27T09:27:06.022Z,61.71
2022-07-27T09:29:35.650Z,62.77
2022-07-27T09:32:16.927Z,63.01
2022-07-27T09:34:45.750Z,63.44
2022-07-27T09:37:24.878Z,62.67
2022-07-27T09:40:11.542Z,65.13
2022-07-27T09:43:14.522Z,64.79
2022-07-27T09:45:32.639Z,65.82
2022-07-27T09:48:21.174Z,63.47
2022-07-27T09:51:02.328Z,60.96
2022-07-27T09:53:42.734Z,66.51
2022-07-27T09:56:17.829Z,63.54
2022-07-27T09:58:51.010Z,64.48
2022-07-27T10:01:22.149Z,63.94
2022-07-27T10:03:59.115Z,63.04
2022-07-27T10:06:28.352Z,65.69
2022-07-27T10:08:57.832Z,64.47
2022-07-27T10:11:26.016Z,65.33
2022-07-27T10:13:54.788Z,65.12
2022-07-27T10:16:25.099Z,65.98
2022-07-27T10:19:16.118Z,62.96
2022-07-27T10:21:46.159Z,62.88
2022-07-27T10:24:35.347Z,62.42
2022-07-27T10:27:28.491Z,63.43
2022-07-27T10:29:57.503Z,62.58
2022-07-27T10:32:33.059Z,64.13
2022-07-27T10:35:01.467Z,64.15
2022-07-27T10:37:33.897Z,60.13
2022-07-27T10:40:23.683Z,62.45
2022-07-27T10:42:54.608Z,63.84
2022-07-27T10:45:22.726Z,66.32
2022-07-27T10:47:52.497Z,64.81
2022-07-27T10:50:23.820Z,65.87
2022-07-27T10:53:00.329Z,65.67
2022-07-27T10:55:30.803Z,65.76
2022-07-27T10:58:16.676Z,62.79
2022-07-27T11:00:57.429Z,66.10
2022-07-27T11:03:42.451Z,64.38
2022-07-27T11:06:33.174Z,62.39
2022-07-27T11:11:52.407Z,67.66
2022-07-27T11:14:31.234Z,67.59
2022-07-27T11:17:39.898Z,62.89
2022-07-27T11:20:02.205Z,63.00
2022-07-27T11:23:13.927Z,64.42
2022-07-27T11:25:24.686Z,66.67
2022-07-27T11:27:52.469Z,65.21
2022-07-27T11:30:27.657Z,63.33
2022-07-27T11:32:56.231Z,65.66
2022-07-27T11:35:24.884Z,69.02
2022-07-27T11:38:05.360Z,64.65
2022-07-27T11:43:38.268Z,65.63
2022-07-27T11:46:30.106Z,65.79
2022-07-27T11:49:10.994Z,62.91
2022-07-27T11:51:43.706Z,62.72
2022-07-27T11:54:35.534Z,65.15
2022-07-27T11:57:08.354Z,62.86
2022-07-27T11:59:40.509Z,65.90
2022-07-27T12:02:10.182Z,65.70
2022-07-27T12:04:39.069Z,69.68
2022-07-27T12:07:24.810Z,67.50
2022-07-27T12:09:54.702Z,67.10
2022-07-27T12:12:23.612Z,66.77
2022-07-27T12:14:52.135Z,66.28
2022-07-27T12:17:30.798Z,67.86
2022-07-27T12:20:00.147Z,67.68
2022-07-27T12:22:36.723Z,63.69
2022-07-27T12:25:16.409Z,64.07
2022-07-27T12:28:06.132Z,61.77
2022-07-27T12:30:39.140Z,60.89
2022-07-27T12:33:09.091Z,61.16
2022-07-27T12:35:47.244Z,60.67
2022-07-27T12:38:14.734Z,60.91
2022-07-27T12:40:49.087Z,62.34
2022-07-27T12:43:19.394Z,65.54
2022-07-27T12:45:48.769Z,61.43
2022-07-27T12:48:25.548Z,62.16
2022-07-27T12:51:07.533Z,63.84
2022-07-27T12:53:35.990Z,66.10
2022-07-27T12:56:10.010Z,64.08
2022-07-27T12:58:37.778Z,64.64
2022-07-27T13:01:06.068Z,63.42
2022-07-27T13:03:33.557Z,65.05
2022-07-27T13:06:10.686Z,63.28
2022-07-27T13:08:41.469Z,62.02
2022-07-27T13:11:08.595Z,64.29
2022-07-27T13:13:35.848Z,63.21
2022-07-27T13:16:03.336Z,66.37
2022-07-27T13:18:30.668Z,66.13
2022-07-27T13:20:58.263Z,62.76
2022-07-27T13:23:25.741Z,64.34
2022-07-27T13:25:52.892Z,65.25
2022-07-27T13:28:20.199Z,65.20
2022-07-27T13:30:47.671Z,65.67
2022-07-27T13:33:14.903Z,64.22
2022-07-27T13:35:42.661Z,64.35
2022-07-27T13:38:16.090Z,62.52
2022-07-27T13:40:45.453Z,62.89
2022-07-27T13:43:13.270Z,60.09
2022-07-27T13:45:42.810Z,61.92
2022-07-27T13:48:12.257Z,59.90
2022-07-27T13:50:40.094Z,61.04
2022-07-27T13:53:07.435Z,60.96
2022-07-27T13:55:35.334Z,61.03
2022-07-27T13:58:02.838Z,60.91
2022-07-27T14:00:30.192Z,63.56
2022-07-27T14:02:57.540Z,61.84
2022-07-27T14:05:26.415Z,58.99
2022-07-27T14:07:56.193Z,62.36
2022-07-27T14:10:42.097Z,59.56
2022-07-27T14:13:12.409Z,59.75
2022-07-27T14:15:53.726Z,61.20
2022-07-27T14:18:29.110Z,60.43
2022-07-27T14:20:58.144Z,63.32
2022-07-27T14:23:26.752Z,63.10
2022-07-27T14:25:55.289Z,64.59
2022-07-27T14:28:24.234Z,61.21
2022-07-27T14:30:53.755Z,63.48
2022-07-27T14:33:21.931Z,61.89
2022-07-27T14:35:49.133Z,60.99
2022-07-27T14:38:24.783Z,59.14
2022-07-27T14:40:57.453Z,59.80
2022-07-27T14:43:25.747Z,61.07
2022-07-27T14:45:52.953Z,61.83
2022-07-27T14:48:32.142Z,63.09
2022-07-27T14:51:05.373Z,61.06
2022-07-27T14:53:33.893Z,60.92
2022-07-27T14:56:01.618Z,58.58
2022-07-27T14:58:29.655Z,60.81
2022-07-27T15:00:58.950Z,60.99
2022-07-27T15:03:26.762Z,61.70
2022-07-27T15:05:54.717Z,59.09
2022-07-27T15:08:24.991Z,59.55
2022-07-27T15:10:52.238Z,61.19
2022-07-27T15:13:19.733Z,62.87
2022-07-27T15:15:52.746Z,60.96
2022-07-27T15:18:21.202Z,59.28
2022-07-27T15:20:48.520Z,61.26
2022-07-27T15:23:16.941Z,60.13
2022-07-27T15:25:44.915Z,61.88
2022-07-27T15:28:12.322Z,63.39
2022-07-27T15:30:39.868Z,63.80
2022-07-27T15:33:07.615Z,62.65
2022-07-27T15:35:35.517Z,63.87
2022-07-27T15:38:03.214Z,64.46
2022-07-27T15:40:42.628Z,64.30
2022-07-27T15:43:15.088Z,64.44
2022-07-27T15:45:43.699Z,65.33
2022-07-27T15:48:12.099Z,65.78
2022-07-27T15:50:42.129Z,64.67
2022-07-27T15:53:11.126Z,66.12
2022-07-27T15:55:38.492Z,66.67
2022-07-27T15:58:06.813Z,65.02
2022-07-27T16:00:39.398Z,65.09
2022-07-27T16:03:08.699Z,65.12
2022-07-27T16:05:36.462Z,64.64
2022-07-27T16:08:03.952Z,65.63
2022-07-27T16:10:31.205Z,63.78
2022-07-27T16:13:00.509Z,64.12
2022-07-27T16:15:46.714Z,65.51
2022-07-27T16:18:14.180Z,63.73
2022-07-27T16:20:41.380Z,64.66
2022-07-27T16:23:14.462Z,62.99
2022-07-27T16:26:03.251Z,62.40
2022-07-27T16:28:34.297Z,63.31
2022-07-27T16:31:02.802Z,63.95
2022-07-27T16:33:30.361Z,64.95
2022-07-27T16:35:58.082Z,65.39
2022-07-27T16:38:26.086Z,65.74
2022-07-27T16:40:53.367Z,63.68
2022-07-27T16:43:20.672Z,64.42
2022-07-27T16:45:48.090Z,65.27
2022-07-27T16:48:15.350Z,65.91
2022-07-27T16:50:42.449Z,66.44
2022-07-27T16:53:10.720Z,66.20
2022-07-27T16:55:38.884Z,67.79
2022-07-27T16:58:06.190Z,68.88
2022-07-27T17:00:38.436Z,67.94
2022-07-27T17:03:08.936Z,68.62
2022-07-27T17:05:37.615Z,67.57
2022-07-27T17:08:06.076Z,68.46
2022-07-27T17:10:33.599Z,68.05
2022-07-27T17:13:01.787Z,69.06
2022-07-27T17:15:30.239Z,69.18
2022-07-27T17:17:57.519Z,68.13
2022-07-27T17:20:32.877Z,68.44
2022-07-27T17:23:04.379Z,70.19
2022-07-27T17:25:31.750Z,70.09
2022-07-27T17:27:59.129Z,68.66
2022-07-27T17:30:26.188Z,69.75
2022-07-27T17:32:54.164Z,74.06
2022-07-27T17:35:21.405Z,75.89
2022-07-27T17:38:05.661Z,81.73
2022-07-27T17:40:35.590Z,81.12
2022-07-27T17:43:03.232Z,81.42
2022-07-27T17:45:31.330Z,80.95
2022-07-27T17:47:59.808Z,84.56
2022-07-27T17:50:27.696Z,87.34
2022-07-27T17:52:57.054Z,88.73
2022-07-27T17:55:25.468Z,89.28
2022-07-27T17:57:54.033Z,89.36
2022-07-27T18:00:21.596Z,92.25
2022-07-27T18:02:55.370Z,96.78
2022-07-27T18:05:26.306Z,100.00
2022-07-27T18:07:56.141Z,100.00
2022-07-27T18:10:26.621Z,100.00
2022-07-27T18:13:00.369Z,100.00
2022-07-27T18:15:53.829Z,100.00
2022-07-27T18:18:27.869Z,100.00
2022-07-27T18:21:01.748Z,100.00
2022-07-27T18:23:31.153Z,100.00
2022-07-27T18:25:59.810Z,100.00
2022-07-27T18:28:29.470Z,100.00
2022-07-27T18:30:58.988Z,100.00
2022-07-27T18:33:36.198Z,100.00
2022-07-27T18:36:07.775Z,100.00
2022-07-27T18:38:39.150Z,100.00
2022-07-27T18:41:12.012Z,100.00
2022-07-27T18:43:43.082Z,100.00
2022-07-27T18:46:13.560Z,100.00
2022-07-27T18:48:42.074Z,100.00
2022-07-27T18:51:11.691Z,100.00
2022-07-27T18:53:44.791Z,100.00
2022-07-27T18:56:13.932Z,100.00
2022-07-27T18:58:45.029Z,100.00
2022-07-27T19:01:13.197Z,100.00
2022-07-27T19:03:42.401Z,100.00
2022-07-27T19:06:11.421Z,100.00
2022-07-27T19:08:45.811Z,100.00
2022-07-27T19:11:15.417Z,100.00
2022-07-27T19:13:46.025Z,100.00
2022-07-27T19:16:13.535Z,100.00
2022-07-27T19:18:41.918Z,100.00
2022-07-27T19:21:10.371Z,100.00
2022-07-27T19:23:37.575Z,100.00
2022-07-27T19:26:05.060Z,100.00
2022-07-27T19:28:32.205Z,100.00
2022-07-27T19:30:59.919Z,100.00
2022-07-27T19:33:27.448Z,100.00
2022-07-27T19:35:55.704Z,100.00
2022-07-27T19:38:22.957Z,100.00
2022-07-27T19:40:50.471Z,100.00
2022-07-27T19:43:17.881Z,100.00
2022-07-27T19:45:45.359Z,100.00
2022-07-27T19:48:12.842Z,100.00
2022-07-27T19:50:40.299Z,100.00
2022-07-27T19:53:08.035Z,100.00
2022-07-27T19:55:35.519Z,100.00
2022-07-27T19:58:03.106Z,100.00
2022-07-27T20:00:30.918Z,100.00
2022-07-27T20:02:58.406Z,100.00
2022-07-27T20:05:25.654Z,100.00
2022-07-27T20:07:53.555Z,100.00
2022-07-27T20:10:21.916Z,100.00
2022-07-27T20:12:49.267Z,100.00
2022-07-27T20:15:16.586Z,100.00
2022-07-27T20:17:44.023Z,100.00
2022-07-27T20:20:11.729Z,100.00
2022-07-27T20:22:40.887Z,100.00
2022-07-27T20:25:10.564Z,100.00
2022-07-27T20:27:38.032Z,100.00
2022-07-27T20:30:05.643Z,100.00
2022-07-27T20:32:33.191Z,100.00
2022-07-27T20:35:01.278Z,100.00
2022-07-27T20:37:28.972Z,100.00
2022-07-27T20:39:56.358Z,100.00
2022-07-27T20:42:23.720Z,100.00
2022-07-27T20:44:50.891Z,100.00
2022-07-27T20:47:18.449Z,100.00
2022-07-27T20:49:45.719Z,100.00
2022-07-27T20:52:12.846Z,100.00
2022-07-27T20:54:40.647Z,100.00
2022-07-27T20:57:07.983Z,100.00
2022-07-27T20:59:35.229Z,100.00
2022-07-27T21:02:02.724Z,100.00
2022-07-27T21:04:30.098Z,100.00
2022-07-27T21:06:57.266Z,100.00
2022-07-27T21:09:25.073Z,100.00
2022-07-27T21:11:52.518Z,100.00
2022-07-27T21:14:19.629Z,100.00
2022-07-27T21:16:47.241Z,99.57
2022-07-27T21:19:14.669Z,97.85
2022-07-27T21:21:42.219Z,93.62
2022-07-27T21:24:16.157Z,90.59
2022-07-27T21:26:48.619Z,90.04
2022-07-27T21:29:17.104Z,90.84
2022-07-27T21:31:49.292Z,89.96
2022-07-27T21:34:19.286Z,89.67
2022-07-27T21:36:47.795Z,90.14
2022-07-27T21:39:15.799Z,91.50
2022-07-27T21:41:43.280Z,92.79
2022-07-27T21:44:10.989Z,96.17
2022-07-27T21:46:38.516Z,95.86
2022-07-27T21:49:06.083Z,98.71
2022-07-27T21:51:33.328Z,100.00
2022-07-27T21:54:00.502Z,100.00
2022-07-27T21:56:28.451Z,100.00
2022-07-27T21:58:55.816Z,100.00
2022-07-27T22:01:23.205Z,100.00
2022-07-27T22:03:51.141Z,100.00
2022-07-27T22:06:18.599Z,100.00
2022-07-27T22:08:46.354Z,100.00
2022-07-27T22:11:14.033Z,100.00
2022-07-27T22:13:41.468Z,100.00
2022-07-27T22:16:09.406Z,100.00
2022-07-27T22:18:36.933Z,100.00
2022-07-27T22:21:04.402Z,100.00
2022-07-27T22:23:31.654Z,100.00
2022-07-27T22:25:58.993Z,100.00
2022-07-27T22:28:26.506Z,100.00
2022-07-27T22:30:59.980Z,100.00
2022-07-27T22:33:44.526Z,100.00
2022-07-27T22:36:12.782Z,100.00
2022-07-27T22:38:40.194Z,100.00
2022-07-27T22:41:08.125Z,100.00
2022-07-27T22:43:35.494Z,100.00
2022-07-27T22:46:04.161Z,100.00
2022-07-27T22:48:31.825Z,100.00
2022-07-27T22:50:59.004Z,100.00
2022-07-27T22:53:26.747Z,100.00
2022-07-27T22:55:54.220Z,100.00
2022-07-27T22:58:21.765Z,100.00
2022-07-27T23:00:49.105Z,100.00
2022-07-27T23:03:16.987Z,100.00
2022-07-27T23:05:44.410Z,100.00
2022-07-27T23:08:11.800Z,100.00
2022-07-27T23:10:51.139Z,100.00
2022-07-27T23:13:19.669Z,100.00
2022-07-27T23:15:47.944Z,100.00
2022-07-27T23:18:16.598Z,100.00
2022-07-27T23:20:44.276Z,100.00
2022-07-27T23:23:16.293Z,100.00
2022-07-27T23:25:48.668Z,100.00
2022-07-27T23:28:17.280Z,100.00
2022-07-27T23:30:44.584Z,100.00
2022-07-27T23:33:11.934Z,100.00
2022-07-27T23:35:39.460Z,100.00
2022-07-27T23:38:06.623Z,100.00
2022-07-27T23:40:33.984Z,100.00
2022-07-27T23:43:02.292Z,100.00
2022-07-27T23:45:29.648Z,100.00
2022-07-27T23:47:56.897Z,100.00
2022-07-27T23:50:24.453Z,100.00
2022-07-27T23:52:52.083Z,100.00
2022-07-27T23:55:19.289Z,100.00
2022-07-27T23:57:47.223Z,100.00
